Ellettsville, Indiana
Current Conditions -  °F | °C
As of 6:53 AM on Friday 19 Dec 2014 (Local Time) from KBMG Reporting Station
Overcast Overcast  
Wind Chill: 18°   Ceiling: 1100
Heat Index: 26°   Visibility: 9mi
Dew Point: 22°   Wind: 8mph
Humidity: 84%   Direction: 360°N
Pressure: 30.27"   Gusts: NA
Location:  39.23°N, 86.63°W
Report Text: KBMG 191153Z 36007KT 9SM OVC011 M03/M06 A3027 RMK AO2 SLP259 I6000 T10331056 11028 21056 50003
Loading
Personal Weather Stations






























Interactive Weather Map New forecast layout! Learn more

10-Day Weather Forecast

Advertisements
Track Severe Weather on mobile